sensor_id;sensor_type;location;lat;lon;timestamp;temperature;humidity
51902;DHT22;37929;53.218;6.548;2022-09-12T00:01:58;16.30;99.90
51902;DHT22;37929;53.218;6.548;2022-09-12T00:04:24;16.30;99.90
51902;DHT22;37929;53.218;6.548;2022-09-12T00:06:52;16.20;99.90
51902;DHT22;37929;53.218;6.548;2022-09-12T00:09:18;16.20;99.90
51902;DHT22;37929;53.218;6.548;2022-09-12T00:11:45;16.20;99.90
51902;DHT22;37929;53.218;6.548;2022-09-12T00:14:14;16.20;99.90
51902;DHT22;37929;53.218;6.548;2022-09-12T00:16:41;16.20;99.90
51902;DHT22;37929;53.218;6.548;2022-09-12T00:19:07;16.20;99.90
51902;DHT22;37929;53.218;6.548;2022-09-12T00:21:34;16.10;99.90
51902;DHT22;37929;53.218;6.548;2022-09-12T00:24:01;16.20;99.90
51902;DHT22;37929;53.218;6.548;2022-09-12T00:26:26;16.20;99.90
51902;DHT22;37929;53.218;6.548;2022-09-12T00:28:52;16.10;99.90
51902;DHT22;37929;53.218;6.548;2022-09-12T00:31:21;16.10;99.90
51902;DHT22;37929;53.218;6.548;2022-09-12T00:33:52;16.10;99.90
51902;DHT22;37929;53.218;6.548;2022-09-12T00:36:21;16.10;99.90
51902;DHT22;37929;53.218;6.548;2022-09-12T00:38:48;16.10;99.90
51902;DHT22;37929;53.218;6.548;2022-09-12T00:43:57;16.00;99.90
51902;DHT22;37929;53.218;6.548;2022-09-12T00:46:34;16.00;99.90
51902;DHT22;37929;53.218;6.548;2022-09-12T00:49:14;16.00;99.90
51902;DHT22;37929;53.218;6.548;2022-09-12T00:51:54;15.80;99.90
51902;DHT22;37929;53.218;6.548;2022-09-12T00:54:27;15.80;99.90
51902;DHT22;37929;53.218;6.548;2022-09-12T00:56:55;15.80;99.90
51902;DHT22;37929;53.218;6.548;2022-09-12T00:59:28;15.90;99.90
51902;DHT22;37929;53.218;6.548;2022-09-12T01:01:55;15.70;99.90
51902;DHT22;37929;53.218;6.548;2022-09-12T01:04:22;15.80;99.90
51902;DHT22;37929;53.218;6.548;2022-09-12T01:06:49;15.70;99.90
51902;DHT22;37929;53.218;6.548;2022-09-12T01:09:19;15.70;99.90
51902;DHT22;37929;53.218;6.548;2022-09-12T01:11:46;15.70;99.90
51902;DHT22;37929;53.218;6.548;2022-09-12T01:14:13;15.70;99.90
51902;DHT22;37929;53.218;6.548;2022-09-12T01:16:40;15.70;99.90
51902;DHT22;37929;53.218;6.548;2022-09-12T01:38:59;15.60;99.90
51902;DHT22;37929;53.218;6.548;2022-09-12T01:41:59;15.70;99.90
51902;DHT22;37929;53.218;6.548;2022-09-12T01:44:54;15.80;99.90
51902;DHT22;37929;53.218;6.548;2022-09-12T01:47:30;15.60;99.90
51902;DHT22;37929;53.218;6.548;2022-09-12T01:52:41;15.50;99.90
51902;DHT22;37929;53.218;6.548;2022-09-12T02:01:06;15.50;99.90
51902;DHT22;37929;53.218;6.548;2022-09-12T02:06:18;15.40;99.90
51902;DHT22;37929;53.218;6.548;2022-09-12T02:08:55;15.40;99.90
51902;DHT22;37929;53.218;6.548;2022-09-12T02:11:23;15.30;99.90
51902;DHT22;37929;53.218;6.548;2022-09-12T02:13:55;15.30;99.90
51902;DHT22;37929;53.218;6.548;2022-09-12T02:16:35;15.30;99.90
51902;DHT22;37929;53.218;6.548;2022-09-12T02:19:10;15.10;99.90
51902;DHT22;37929;53.218;6.548;2022-09-12T02:21:39;15.20;99.90
51902;DHT22;37929;53.218;6.548;2022-09-12T02:24:07;15.20;99.90
51902;DHT22;37929;53.218;6.548;2022-09-12T02:26:40;15.20;99.90
51902;DHT22;37929;53.218;6.548;2022-09-12T02:29:08;15.10;99.90
51902;DHT22;37929;53.218;6.548;2022-09-12T02:34:23;15.10;99.90
51902;DHT22;37929;53.218;6.548;2022-09-12T02:37:04;15.10;99.90
51902;DHT22;37929;53.218;6.548;2022-09-12T02:39:32;15.10;99.90
51902;DHT22;37929;53.218;6.548;2022-09-12T02:42:00;15.00;99.90
51902;DHT22;37929;53.218;6.548;2022-09-12T02:44:28;15.00;99.90
51902;DHT22;37929;53.218;6.548;2022-09-12T02:47:08;15.00;99.90
51902;DHT22;37929;53.218;6.548;2022-09-12T02:49:36;15.00;99.90
51902;DHT22;37929;53.218;6.548;2022-09-12T02:52:02;15.00;99.90
51902;DHT22;37929;53.218;6.548;2022-09-12T02:54:29;14.90;99.90
51902;DHT22;37929;53.218;6.548;2022-09-12T02:56:55;14.90;99.90
51902;DHT22;37929;53.218;6.548;2022-09-12T02:59:22;14.90;99.90
51902;DHT22;37929;53.218;6.548;2022-09-12T03:07:25;15.00;99.90
51902;DHT22;37929;53.218;6.548;2022-09-12T03:24:40;14.90;99.90
51902;DHT22;37929;53.218;6.548;2022-09-12T03:27:26;14.90;99.90
51902;DHT22;37929;53.218;6.548;2022-09-12T03:29:54;14.90;99.90
51902;DHT22;37929;53.218;6.548;2022-09-12T03:32:56;14.90;99.90
51902;DHT22;37929;53.218;6.548;2022-09-12T03:35:23;14.90;99.90
51902;DHT22;37929;53.218;6.548;2022-09-12T03:37:50;14.90;99.90
51902;DHT22;37929;53.218;6.548;2022-09-12T03:40:16;14.90;99.90
51902;DHT22;37929;53.218;6.548;2022-09-12T03:42:42;14.90;99.90
51902;DHT22;37929;53.218;6.548;2022-09-12T03:45:08;14.90;99.90
51902;DHT22;37929;53.218;6.548;2022-09-12T03:47:34;14.90;99.90
51902;DHT22;37929;53.218;6.548;2022-09-12T03:50:00;14.90;99.90
51902;DHT22;37929;53.218;6.548;2022-09-12T03:52:26;14.90;99.90
51902;DHT22;37929;53.218;6.548;2022-09-12T03:54:52;14.90;99.90
51902;DHT22;37929;53.218;6.548;2022-09-12T03:57:18;14.80;99.90
51902;DHT22;37929;53.218;6.548;2022-09-12T03:59:44;14.90;99.90
51902;DHT22;37929;53.218;6.548;2022-09-12T04:02:10;14.90;99.90
51902;DHT22;37929;53.218;6.548;2022-09-12T04:04:42;14.80;99.90
51902;DHT22;37929;53.218;6.548;2022-09-12T04:07:09;14.80;99.90
51902;DHT22;37929;53.218;6.548;2022-09-12T04:09:36;14.80;99.90
51902;DHT22;37929;53.218;6.548;2022-09-12T04:12:02;14.80;99.90
51902;DHT22;37929;53.218;6.548;2022-09-12T04:14:27;14.80;99.90
51902;DHT22;37929;53.218;6.548;2022-09-12T04:16:53;14.80;99.90
51902;DHT22;37929;53.218;6.548;2022-09-12T04:19:19;14.70;99.90
51902;DHT22;37929;53.218;6.548;2022-09-12T04:21:45;14.70;99.90
51902;DHT22;37929;53.218;6.548;2022-09-12T04:24:10;14.70;99.90
51902;DHT22;37929;53.218;6.548;2022-09-12T04:26:36;14.70;99.90
51902;DHT22;37929;53.218;6.548;2022-09-12T04:29:02;14.70;99.90
51902;DHT22;37929;53.218;6.548;2022-09-12T04:31:28;14.70;99.90
51902;DHT22;37929;53.218;6.548;2022-09-12T04:33:55;14.70;99.90
51902;DHT22;37929;53.218;6.548;2022-09-12T04:36:22;14.70;99.90
51902;DHT22;37929;53.218;6.548;2022-09-12T04:38:49;14.70;99.90
51902;DHT22;37929;53.218;6.548;2022-09-12T04:41:18;14.70;99.90
51902;DHT22;37929;53.218;6.548;2022-09-12T04:43:45;14.70;99.90
51902;DHT22;37929;53.218;6.548;2022-09-12T04:46:12;14.70;99.90
51902;DHT22;37929;53.218;6.548;2022-09-12T04:48:38;14.70;99.90
51902;DHT22;37929;53.218;6.548;2022-09-12T04:51:08;14.70;99.90
51902;DHT22;37929;53.218;6.548;2022-09-12T04:53:34;14.70;99.90
51902;DHT22;37929;53.218;6.548;2022-09-12T04:56:06;14.80;99.90
51902;DHT22;37929;53.218;6.548;2022-09-12T04:58:32;14.70;99.90
51902;DHT22;37929;53.218;6.548;2022-09-12T05:01:06;14.70;99.90
51902;DHT22;37929;53.218;6.548;2022-09-12T05:03:33;14.80;99.90
51902;DHT22;37929;53.218;6.548;2022-09-12T05:06:01;14.80;99.90
51902;DHT22;37929;53.218;6.548;2022-09-12T05:08:31;14.70;99.90
51902;DHT22;37929;53.218;6.548;2022-09-12T05:11:05;14.70;99.90
51902;DHT22;37929;53.218;6.548;2022-09-12T05:13:32;14.80;99.90
51902;DHT22;37929;53.218;6.548;2022-09-12T05:15:59;14.80;99.90
51902;DHT22;37929;53.218;6.548;2022-09-12T05:18:26;14.80;99.90
51902;DHT22;37929;53.218;6.548;2022-09-12T05:20:52;14.80;99.90
51902;DHT22;37929;53.218;6.548;2022-09-12T05:23:18;14.80;99.90
51902;DHT22;37929;53.218;6.548;2022-09-12T05:25:51;14.80;99.90
51902;DHT22;37929;53.218;6.548;2022-09-12T05:28:18;14.90;99.90
51902;DHT22;37929;53.218;6.548;2022-09-12T05:30:43;14.90;99.90
51902;DHT22;37929;53.218;6.548;2022-09-12T05:33:10;14.90;99.90
51902;DHT22;37929;53.218;6.548;2022-09-12T05:35:36;14.90;99.90
51902;DHT22;37929;53.218;6.548;2022-09-12T05:38:03;14.90;99.90
51902;DHT22;37929;53.218;6.548;2022-09-12T05:40:29;15.00;99.90
51902;DHT22;37929;53.218;6.548;2022-09-12T05:42:55;15.00;99.90
51902;DHT22;37929;53.218;6.548;2022-09-12T05:45:21;15.00;99.90
51902;DHT22;37929;53.218;6.548;2022-09-12T05:47:46;15.00;99.90
51902;DHT22;37929;53.218;6.548;2022-09-12T05:50:12;15.00;99.90
51902;DHT22;37929;53.218;6.548;2022-09-12T05:52:38;15.00;99.90
51902;DHT22;37929;53.218;6.548;2022-09-12T05:55:04;15.10;99.90
51902;DHT22;37929;53.218;6.548;2022-09-12T05:57:30;15.00;99.90
51902;DHT22;37929;53.218;6.548;2022-09-12T05:59:56;15.00;99.90
51902;DHT22;37929;53.218;6.548;2022-09-12T06:02:22;15.00;99.90
51902;DHT22;37929;53.218;6.548;2022-09-12T06:04:47;15.10;99.90
51902;DHT22;37929;53.218;6.548;2022-09-12T06:07:13;15.10;99.90
51902;DHT22;37929;53.218;6.548;2022-09-12T06:09:39;15.10;99.90
51902;DHT22;37929;53.218;6.548;2022-09-12T06:12:05;15.10;99.90
51902;DHT22;37929;53.218;6.548;2022-09-12T06:14:32;15.10;99.90
51902;DHT22;37929;53.218;6.548;2022-09-12T06:16:58;15.20;99.90
51902;DHT22;37929;53.218;6.548;2022-09-12T06:19:24;15.20;99.90
51902;DHT22;37929;53.218;6.548;2022-09-12T06:21:52;15.20;99.90
51902;DHT22;37929;53.218;6.548;2022-09-12T06:24:19;15.20;99.90
51902;DHT22;37929;53.218;6.548;2022-09-12T06:26:46;15.20;99.90
51902;DHT22;37929;53.218;6.548;2022-09-12T06:29:13;15.30;99.90
51902;DHT22;37929;53.218;6.548;2022-09-12T06:31:40;15.30;99.90
51902;DHT22;37929;53.218;6.548;2022-09-12T06:34:13;15.30;99.90
51902;DHT22;37929;53.218;6.548;2022-09-12T06:36:41;15.30;99.90
51902;DHT22;37929;53.218;6.548;2022-09-12T06:39:18;15.40;99.90
51902;DHT22;37929;53.218;6.548;2022-09-12T06:41:45;15.40;99.90
51902;DHT22;37929;53.218;6.548;2022-09-12T06:44:19;15.40;99.90
51902;DHT22;37929;53.218;6.548;2022-09-12T06:46:45;15.40;99.90
51902;DHT22;37929;53.218;6.548;2022-09-12T06:49:11;15.40;99.90
51902;DHT22;37929;53.218;6.548;2022-09-12T06:51:37;15.50;99.90
51902;DHT22;37929;53.218;6.548;2022-09-12T06:54:04;15.50;99.90
51902;DHT22;37929;53.218;6.548;2022-09-12T06:56:30;15.50;99.90
51902;DHT22;37929;53.218;6.548;2022-09-12T06:58:56;15.50;99.90
51902;DHT22;37929;53.218;6.548;2022-09-12T07:01:27;15.50;99.90
51902;DHT22;37929;53.218;6.548;2022-09-12T07:03:54;15.60;99.90
51902;DHT22;37929;53.218;6.548;2022-09-12T07:06:27;15.60;99.90
51902;DHT22;37929;53.218;6.548;2022-09-12T07:09:00;15.70;99.90
51902;DHT22;37929;53.218;6.548;2022-09-12T07:11:29;15.70;99.90
51902;DHT22;37929;53.218;6.548;2022-09-12T07:13:57;15.70;99.90
51902;DHT22;37929;53.218;6.548;2022-09-12T07:16:24;15.80;99.90
51902;DHT22;37929;53.218;6.548;2022-09-12T07:18:51;15.80;99.90
51902;DHT22;37929;53.218;6.548;2022-09-12T07:21:17;15.80;99.90
51902;DHT22;37929;53.218;6.548;2022-09-12T07:23:43;15.90;99.90
51902;DHT22;37929;53.218;6.548;2022-09-12T07:26:11;15.90;99.90
51902;DHT22;37929;53.218;6.548;2022-09-12T07:28:37;16.00;99.90
51902;DHT22;37929;53.218;6.548;2022-09-12T07:31:09;16.10;99.90
51902;DHT22;37929;53.218;6.548;2022-09-12T07:33:36;16.10;99.90
51902;DHT22;37929;53.218;6.548;2022-09-12T07:36:04;16.20;99.90
51902;DHT22;37929;53.218;6.548;2022-09-12T07:38:31;16.20;99.90
51902;DHT22;37929;53.218;6.548;2022-09-12T07:40:57;16.30;99.90
51902;DHT22;37929;53.218;6.548;2022-09-12T07:43:23;16.30;99.90
51902;DHT22;37929;53.218;6.548;2022-09-12T07:45:54;16.30;99.90
51902;DHT22;37929;53.218;6.548;2022-09-12T07:48:20;16.40;99.90
51902;DHT22;37929;53.218;6.548;2022-09-12T07:50:46;16.40;99.90
51902;DHT22;37929;53.218;6.548;2022-09-12T07:53:12;16.50;99.90
51902;DHT22;37929;53.218;6.548;2022-09-12T07:55:38;16.50;99.90
51902;DHT22;37929;53.218;6.548;2022-09-12T07:58:03;16.50;99.90
51902;DHT22;37929;53.218;6.548;2022-09-12T08:00:29;16.60;99.90
51902;DHT22;37929;53.218;6.548;2022-09-12T08:03:00;16.60;99.90
51902;DHT22;37929;53.218;6.548;2022-09-12T08:05:27;16.60;99.90
51902;DHT22;37929;53.218;6.548;2022-09-12T08:07:54;16.60;99.90
51902;DHT22;37929;53.218;6.548;2022-09-12T08:10:20;16.60;99.90
51902;DHT22;37929;53.218;6.548;2022-09-12T08:12:45;16.70;99.90
51902;DHT22;37929;53.218;6.548;2022-09-12T08:15:11;16.70;99.90
51902;DHT22;37929;53.218;6.548;2022-09-12T08:17:37;16.70;99.90
51902;DHT22;37929;53.218;6.548;2022-09-12T08:20:03;16.80;99.90
51902;DHT22;37929;53.218;6.548;2022-09-12T08:22:30;16.80;99.90
51902;DHT22;37929;53.218;6.548;2022-09-12T08:24:56;16.80;99.90
51902;DHT22;37929;53.218;6.548;2022-09-12T08:27:21;16.90;99.90
51902;DHT22;37929;53.218;6.548;2022-09-12T08:29:47;16.90;99.90
51902;DHT22;37929;53.218;6.548;2022-09-12T08:32:13;16.90;99.90
51902;DHT22;37929;53.218;6.548;2022-09-12T08:34:38;16.90;99.90
51902;DHT22;37929;53.218;6.548;2022-09-12T08:37:04;17.00;99.90
51902;DHT22;37929;53.218;6.548;2022-09-12T08:39:30;17.00;99.90
51902;DHT22;37929;53.218;6.548;2022-09-12T08:42:00;17.00;99.90
51902;DHT22;37929;53.218;6.548;2022-09-12T08:44:30;17.10;99.90
51902;DHT22;37929;53.218;6.548;2022-09-12T08:47:05;17.20;99.90
51902;DHT22;37929;53.218;6.548;2022-09-12T08:49:37;17.20;99.90
51902;DHT22;37929;53.218;6.548;2022-09-12T08:52:35;17.30;99.90
51902;DHT22;37929;53.218;6.548;2022-09-12T08:55:04;17.40;99.90
51902;DHT22;37929;53.218;6.548;2022-09-12T08:57:32;17.40;99.90
51902;DHT22;37929;53.218;6.548;2022-09-12T08:59:58;17.40;99.90
51902;DHT22;37929;53.218;6.548;2022-09-12T09:16:24;17.60;99.90
51902;DHT22;37929;53.218;6.548;2022-09-12T09:18:53;17.70;99.90
51902;DHT22;37929;53.218;6.548;2022-09-12T09:21:30;17.70;99.90
51902;DHT22;37929;53.218;6.548;2022-09-12T09:24:03;17.80;99.90
51902;DHT22;37929;53.218;6.548;2022-09-12T09:26:51;17.90;99.90
51902;DHT22;37929;53.218;6.548;2022-09-12T09:29:21;17.90;99.90
51902;DHT22;37929;53.218;6.548;2022-09-12T09:31:52;18.00;99.90
51902;DHT22;37929;53.218;6.548;2022-09-12T09:34:24;18.10;99.90
51902;DHT22;37929;53.218;6.548;2022-09-12T09:36:51;18.10;99.90
51902;DHT22;37929;53.218;6.548;2022-09-12T09:44:36;18.30;99.90
51902;DHT22;37929;53.218;6.548;2022-09-12T09:47:01;18.40;99.90
51902;DHT22;37929;53.218;6.548;2022-09-12T09:49:30;18.50;99.90
51902;DHT22;37929;53.218;6.548;2022-09-12T09:51:57;18.60;99.90
51902;DHT22;37929;53.218;6.548;2022-09-12T09:54:48;18.70;99.90
51902;DHT22;37929;53.218;6.548;2022-09-12T10:05:51;19.10;99.90
51902;DHT22;37929;53.218;6.548;2022-09-12T10:08:40;19.30;99.90
51902;DHT22;37929;53.218;6.548;2022-09-12T10:11:28;19.30;99.90
51902;DHT22;37929;53.218;6.548;2022-09-12T10:13:54;19.40;99.90
51902;DHT22;37929;53.218;6.548;2022-09-12T10:16:48;19.50;99.90
51902;DHT22;37929;53.218;6.548;2022-09-12T10:19:23;19.60;99.90
51902;DHT22;37929;53.218;6.548;2022-09-12T10:21:54;19.70;99.90
51902;DHT22;37929;53.218;6.548;2022-09-12T10:24:26;19.80;99.90
51902;DHT22;37929;53.218;6.548;2022-09-12T10:26:56;19.80;99.90
51902;DHT22;37929;53.218;6.548;2022-09-12T10:29:28;19.80;99.90
51902;DHT22;37929;53.218;6.548;2022-09-12T10:32:05;19.90;99.90
51902;DHT22;37929;53.218;6.548;2022-09-12T10:34:43;19.90;99.90
51902;DHT22;37929;53.218;6.548;2022-09-12T10:37:23;20.10;99.90
51902;DHT22;37929;53.218;6.548;2022-09-12T10:39:55;20.20;99.90
51902;DHT22;37929;53.218;6.548;2022-09-12T10:42:50;20.20;99.90
51902;DHT22;37929;53.218;6.548;2022-09-12T10:47:52;20.40;99.90
51902;DHT22;37929;53.218;6.548;2022-09-12T10:53:20;20.50;99.90
51902;DHT22;37929;53.218;6.548;2022-09-12T10:58:54;20.70;99.90
51902;DHT22;37929;53.218;6.548;2022-09-12T11:04:35;20.70;99.90
51902;DHT22;37929;53.218;6.548;2022-09-12T11:07:28;20.70;99.90
51902;DHT22;37929;53.218;6.548;2022-09-12T11:12:52;20.80;99.90
51902;DHT22;37929;53.218;6.548;2022-09-12T11:19:04;20.90;99.90
51902;DHT22;37929;53.218;6.548;2022-09-12T11:29:57;21.10;99.90
51902;DHT22;37929;53.218;6.548;2022-09-12T11:35:17;21.10;99.90
51902;DHT22;37929;53.218;6.548;2022-09-12T11:38:00;21.20;99.90
51902;DHT22;37929;53.218;6.548;2022-09-12T11:40:55;21.30;99.90
51902;DHT22;37929;53.218;6.548;2022-09-12T11:43:38;21.30;99.90
51902;DHT22;37929;53.218;6.548;2022-09-12T11:46:24;21.40;99.90
51902;DHT22;37929;53.218;6.548;2022-09-12T11:54:40;21.60;99.90
51902;DHT22;37929;53.218;6.548;2022-09-12T11:59:58;21.80;99.90
51902;DHT22;37929;53.218;6.548;2022-09-12T12:02:30;21.80;99.90
51902;DHT22;37929;53.218;6.548;2022-09-12T12:07:55;21.80;99.90
51902;DHT22;37929;53.218;6.548;2022-09-12T12:10:43;21.90;99.90
51902;DHT22;37929;53.218;6.548;2022-09-12T12:13:32;21.90;99.90
51902;DHT22;37929;53.218;6.548;2022-09-12T12:16:03;21.90;99.90
51902;DHT22;37929;53.218;6.548;2022-09-12T12:18:32;21.90;99.90
51902;DHT22;37929;53.218;6.548;2022-09-12T12:34:29;22.20;99.90
51902;DHT22;37929;53.218;6.548;2022-09-12T12:36:56;22.20;99.90
51902;DHT22;37929;53.218;6.548;2022-09-12T12:41:57;22.30;99.90
51902;DHT22;37929;53.218;6.548;2022-09-12T12:50:01;22.40;99.90
51902;DHT22;37929;53.218;6.548;2022-09-12T12:55:15;22.40;99.90
51902;DHT22;37929;53.218;6.548;2022-09-12T12:57:48;22.40;99.90
51902;DHT22;37929;53.218;6.548;2022-09-12T13:02:56;22.50;99.90
51902;DHT22;37929;53.218;6.548;2022-09-12T13:05:24;22.50;99.90
51902;DHT22;37929;53.218;6.548;2022-09-12T13:08:01;22.70;99.90
51902;DHT22;37929;53.218;6.548;2022-09-12T13:10:28;22.80;99.90
51902;DHT22;37929;53.218;6.548;2022-09-12T13:12:57;22.80;99.90
51902;DHT22;37929;53.218;6.548;2022-09-12T13:15:46;22.80;99.90
51902;DHT22;37929;53.218;6.548;2022-09-12T13:18:23;22.90;99.90
51902;DHT22;37929;53.218;6.548;2022-09-12T13:23:32;23.00;99.90
51902;DHT22;37929;53.218;6.548;2022-09-12T13:26:01;23.10;99.90
51902;DHT22;37929;53.218;6.548;2022-09-12T13:28:29;23.00;99.90
51902;DHT22;37929;53.218;6.548;2022-09-12T13:31:02;23.00;99.40
51902;DHT22;37929;53.218;6.548;2022-09-12T13:33:38;23.00;98.90
51902;DHT22;37929;53.218;6.548;2022-09-12T13:44:10;23.10;99.90
51902;DHT22;37929;53.218;6.548;2022-09-12T13:46:37;23.20;99.90
51902;DHT22;37929;53.218;6.548;2022-09-12T13:49:36;23.20;99.70
51902;DHT22;37929;53.218;6.548;2022-09-12T13:52:06;23.20;99.70
51902;DHT22;37929;53.218;6.548;2022-09-12T13:54:33;23.20;99.90
51902;DHT22;37929;53.218;6.548;2022-09-12T13:57:03;23.20;99.20
51902;DHT22;37929;53.218;6.548;2022-09-12T13:59:39;23.20;99.80
51902;DHT22;37929;53.218;6.548;2022-09-12T14:02:20;23.20;99.50
51902;DHT22;37929;53.218;6.548;2022-09-12T14:04:51;23.20;99.40
51902;DHT22;37929;53.218;6.548;2022-09-12T14:07:57;23.20;99.90
51902;DHT22;37929;53.218;6.548;2022-09-12T14:10:32;23.10;99.90
51902;DHT22;37929;53.218;6.548;2022-09-12T14:13:03;23.10;99.90
51902;DHT22;37929;53.218;6.548;2022-09-12T14:15:35;23.00;99.90
51902;DHT22;37929;53.218;6.548;2022-09-12T14:18:03;23.00;99.90
51902;DHT22;37929;53.218;6.548;2022-09-12T14:20:31;23.00;99.90
51902;DHT22;37929;53.218;6.548;2022-09-12T14:25:46;23.00;99.90
51902;DHT22;37929;53.218;6.548;2022-09-12T14:28:15;23.00;99.90
51902;DHT22;37929;53.218;6.548;2022-09-12T14:31:03;23.00;99.90
51902;DHT22;37929;53.218;6.548;2022-09-12T14:33:33;23.00;99.90
51902;DHT22;37929;53.218;6.548;2022-09-12T14:36:30;22.90;99.90
51902;DHT22;37929;53.218;6.548;2022-09-12T14:39:02;22.80;99.90
51902;DHT22;37929;53.218;6.548;2022-09-12T14:41:36;22.80;99.90
51902;DHT22;37929;53.218;6.548;2022-09-12T14:44:05;22.80;99.90
51902;DHT22;37929;53.218;6.548;2022-09-12T14:46:35;22.80;99.90
51902;DHT22;37929;53.218;6.548;2022-09-12T14:49:12;22.70;99.90
51902;DHT22;37929;53.218;6.548;2022-09-12T14:54:54;22.70;99.90
51902;DHT22;37929;53.218;6.548;2022-09-12T14:57:36;22.80;99.90
51902;DHT22;37929;53.218;6.548;2022-09-12T15:02:45;22.80;99.90
51902;DHT22;37929;53.218;6.548;2022-09-12T15:07:39;22.80;99.90
51902;DHT22;37929;53.218;6.548;2022-09-12T15:15:37;22.80;99.90
51902;DHT22;37929;53.218;6.548;2022-09-12T15:18:03;22.80;99.90
51902;DHT22;37929;53.218;6.548;2022-09-12T15:20:36;22.80;99.90
51902;DHT22;37929;53.218;6.548;2022-09-12T15:23:02;22.80;99.90
51902;DHT22;37929;53.218;6.548;2022-09-12T15:25:28;22.80;99.90
51902;DHT22;37929;53.218;6.548;2022-09-12T15:27:54;22.80;99.90
51902;DHT22;37929;53.218;6.548;2022-09-12T15:30:20;22.70;99.90
51902;DHT22;37929;53.218;6.548;2022-09-12T15:32:46;22.70;99.90
51902;DHT22;37929;53.218;6.548;2022-09-12T15:35:17;22.70;99.90
51902;DHT22;37929;53.218;6.548;2022-09-12T15:37:43;22.70;99.90
51902;DHT22;37929;53.218;6.548;2022-09-12T15:40:12;22.70;99.90
51902;DHT22;37929;53.218;6.548;2022-09-12T15:42:38;22.70;99.90
51902;DHT22;37929;53.218;6.548;2022-09-12T15:45:22;22.70;99.90
51902;DHT22;37929;53.218;6.548;2022-09-12T15:47:50;22.70;99.90
51902;DHT22;37929;53.218;6.548;2022-09-12T15:50:16;22.70;99.90
51902;DHT22;37929;53.218;6.548;2022-09-12T15:52:42;22.70;99.90
51902;DHT22;37929;53.218;6.548;2022-09-12T15:55:31;22.60;99.90
51902;DHT22;37929;53.218;6.548;2022-09-12T15:57:58;22.60;99.90
51902;DHT22;37929;53.218;6.548;2022-09-12T16:00:25;22.50;99.90
51902;DHT22;37929;53.218;6.548;2022-09-12T16:02:52;22.50;99.90
51902;DHT22;37929;53.218;6.548;2022-09-12T16:05:23;22.40;99.90
51902;DHT22;37929;53.218;6.548;2022-09-12T16:07:53;22.50;99.90
51902;DHT22;37929;53.218;6.548;2022-09-12T16:10:28;22.50;99.90
51902;DHT22;37929;53.218;6.548;2022-09-12T16:12:55;22.50;99.90
51902;DHT22;37929;53.218;6.548;2022-09-12T16:15:23;22.50;99.90
51902;DHT22;37929;53.218;6.548;2022-09-12T16:17:49;22.50;99.90
51902;DHT22;37929;53.218;6.548;2022-09-12T16:20:15;22.50;99.90
51902;DHT22;37929;53.218;6.548;2022-09-12T16:22:41;22.50;99.90
51902;DHT22;37929;53.218;6.548;2022-09-12T16:25:07;22.50;99.90
51902;DHT22;37929;53.218;6.548;2022-09-12T16:27:33;22.50;99.90
51902;DHT22;37929;53.218;6.548;2022-09-12T16:30:00;22.50;99.90
51902;DHT22;37929;53.218;6.548;2022-09-12T16:32:26;22.40;99.90
51902;DHT22;37929;53.218;6.548;2022-09-12T16:34:51;22.30;99.90
51902;DHT22;37929;53.218;6.548;2022-09-12T16:37:17;22.30;99.90
51902;DHT22;37929;53.218;6.548;2022-09-12T16:39:43;22.30;99.90
51902;DHT22;37929;53.218;6.548;2022-09-12T16:42:09;22.20;99.90
51902;DHT22;37929;53.218;6.548;2022-09-12T16:44:35;22.20;99.90
51902;DHT22;37929;53.218;6.548;2022-09-12T16:47:00;22.20;99.90
51902;DHT22;37929;53.218;6.548;2022-09-12T16:49:26;22.10;99.90
51902;DHT22;37929;53.218;6.548;2022-09-12T16:51:52;22.20;99.90
51902;DHT22;37929;53.218;6.548;2022-09-12T16:54:17;22.20;99.90
51902;DHT22;37929;53.218;6.548;2022-09-12T16:56:43;22.10;99.90
51902;DHT22;37929;53.218;6.548;2022-09-12T16:59:09;22.10;99.90
51902;DHT22;37929;53.218;6.548;2022-09-12T17:01:38;22.10;99.90
51902;DHT22;37929;53.218;6.548;2022-09-12T17:04:04;22.10;99.90
51902;DHT22;37929;53.218;6.548;2022-09-12T17:06:32;22.00;99.90
51902;DHT22;37929;53.218;6.548;2022-09-12T17:08:59;22.00;99.90
51902;DHT22;37929;53.218;6.548;2022-09-12T17:11:36;22.00;99.90
51902;DHT22;37929;53.218;6.548;2022-09-12T17:14:04;22.00;99.90
51902;DHT22;37929;53.218;6.548;2022-09-12T17:16:32;21.90;99.90
51902;DHT22;37929;53.218;6.548;2022-09-12T17:18:58;21.90;99.90
51902;DHT22;37929;53.218;6.548;2022-09-12T17:21:24;21.90;99.90
51902;DHT22;37929;53.218;6.548;2022-09-12T17:23:50;21.90;99.90
51902;DHT22;37929;53.218;6.548;2022-09-12T17:26:16;21.80;99.90
51902;DHT22;37929;53.218;6.548;2022-09-12T17:28:42;21.80;99.90
51902;DHT22;37929;53.218;6.548;2022-09-12T17:31:11;21.70;99.90
51902;DHT22;37929;53.218;6.548;2022-09-12T17:33:37;21.70;99.90
51902;DHT22;37929;53.218;6.548;2022-09-12T17:36:07;21.70;99.90
51902;DHT22;37929;53.218;6.548;2022-09-12T17:38:35;21.60;99.90
51902;DHT22;37929;53.218;6.548;2022-09-12T17:41:21;21.60;99.90
51902;DHT22;37929;53.218;6.548;2022-09-12T17:43:50;21.60;99.90
51902;DHT22;37929;53.218;6.548;2022-09-12T17:46:20;21.50;99.90
51902;DHT22;37929;53.218;6.548;2022-09-12T17:48:56;21.50;99.90
51902;DHT22;37929;53.218;6.548;2022-09-12T17:51:23;21.40;99.90
51902;DHT22;37929;53.218;6.548;2022-09-12T17:54:00;21.40;99.90
51902;DHT22;37929;53.218;6.548;2022-09-12T17:56:28;21.40;99.90
51902;DHT22;37929;53.218;6.548;2022-09-12T17:58:56;21.30;99.90
51902;DHT22;37929;53.218;6.548;2022-09-12T18:01:23;21.30;99.90
51902;DHT22;37929;53.218;6.548;2022-09-12T18:04:07;21.20;99.90
51902;DHT22;37929;53.218;6.548;2022-09-12T18:06:33;21.20;99.90
51902;DHT22;37929;53.218;6.548;2022-09-12T18:09:08;21.10;99.90
51902;DHT22;37929;53.218;6.548;2022-09-12T18:11:35;21.10;99.90
51902;DHT22;37929;53.218;6.548;2022-09-12T18:14:01;21.10;99.90
51902;DHT22;37929;53.218;6.548;2022-09-12T18:16:27;21.10;99.90
51902;DHT22;37929;53.218;6.548;2022-09-12T18:18:53;21.10;99.90
51902;DHT22;37929;53.218;6.548;2022-09-12T18:21:19;21.00;99.90
51902;DHT22;37929;53.218;6.548;2022-09-12T18:23:45;21.00;99.90
51902;DHT22;37929;53.218;6.548;2022-09-12T18:26:12;21.00;99.90
51902;DHT22;37929;53.218;6.548;2022-09-12T18:28:40;21.00;99.90
51902;DHT22;37929;53.218;6.548;2022-09-12T18:31:15;21.00;99.90
51902;DHT22;37929;53.218;6.548;2022-09-12T18:33:42;20.90;99.90
51902;DHT22;37929;53.218;6.548;2022-09-12T18:36:10;20.90;99.90
51902;DHT22;37929;53.218;6.548;2022-09-12T18:38:37;20.80;99.90
51902;DHT22;37929;53.218;6.548;2022-09-12T18:41:04;20.80;99.90
51902;DHT22;37929;53.218;6.548;2022-09-12T18:43:31;20.80;99.90
51902;DHT22;37929;53.218;6.548;2022-09-12T18:46:00;20.70;99.90
51902;DHT22;37929;53.218;6.548;2022-09-12T18:48:26;20.70;99.90